Time;durP1;ratioP1;P1;durP2;ratioP2;P2;SDS_P1;SDS_P2;PMS_P1;PMS_P2;Temp;Humidity;BMP_temperature;BMP_pressure;BME280_temperature;BME280_humidity;BME280_pressure;Samples;Min_cycle;Max_cycle;Signal;HPM_P1;HPM_P2
2023/09/09 00:01:03;;;;;;;37.45;25.33;;;;;;;18.85;100.00;101532.97;5063504;28;20035;-75
2023/09/09 00:03:28;;;;;;;33.55;24.85;;;;;;;18.89;100.00;101550.38;5055876;28;20025;-75
2023/09/09 00:05:54;;;;;;;38.42;25.35;;;;;;;18.79;100.00;101540.31;5063109;28;20031;-75
2023/09/09 00:08:19;;;;;;;31.40;24.50;;;;;;;18.79;100.00;101549.09;5062214;28;20021;-75
2023/09/09 00:10:45;;;;;;;36.60;26.02;;;;;;;18.72;100.00;101542.38;5063180;28;20056;-75
2023/09/09 00:13:11;;;;;;;35.92;26.20;;;;;;;18.63;100.00;101526.94;5062532;28;20468;-75
2023/09/09 00:15:38;;;;;;;40.92;30.10;;;;;;;18.71;100.00;101543.28;5064012;28;20059;-75
2023/09/09 00:18:03;;;;;;;37.97;29.23;;;;;;;18.68;100.00;101535.50;5063117;28;20033;-75
2023/09/09 00:20:32;;;;;;;34.25;28.65;;;;;;;18.66;100.00;101542.63;5064650;28;20356;-75
2023/09/09 00:22:57;;;;;;;34.63;28.02;;;;;;;18.65;100.00;101540.94;5063968;28;20024;-75
2023/09/09 00:25:23;;;;;;;37.28;29.38;;;;;;;18.63;100.00;101542.78;5062767;28;20430;-75
2023/09/09 00:27:48;;;;;;;43.95;31.50;;;;;;;18.58;100.00;101537.72;5063738;28;20422;-75
2023/09/09 00:30:13;;;;;;;34.80;29.70;;;;;;;18.55;100.00;101535.22;5064214;28;20028;-75
2023/09/09 00:32:39;;;;;;;39.90;32.63;;;;;;;18.46;100.00;101530.34;5060203;28;20112;-75
2023/09/09 00:35:04;;;;;;;35.25;30.50;;;;;;;18.49;100.00;101525.78;5063900;28;20349;-74
2023/09/09 00:37:30;;;;;;;39.40;33.55;;;;;;;18.40;100.00;101514.78;5061540;28;20495;-75
2023/09/09 00:39:56;;;;;;;36.38;32.30;;;;;;;18.47;100.00;101534.69;5062084;28;20399;-75
2023/09/09 00:42:22;;;;;;;43.42;34.97;;;;;;;18.44;100.00;101525.16;5063308;28;20491;-75
2023/09/09 00:44:47;;;;;;;43.55;34.95;;;;;;;18.42;100.00;101536.72;5061280;28;20025;-75
2023/09/09 00:47:12;;;;;;;42.47;35.63;;;;;;;18.39;100.00;101526.28;5062701;28;20056;-75
2023/09/09 00:49:38;;;;;;;41.10;36.45;;;;;;;18.40;100.00;101538.53;5061690;28;20037;-75
2023/09/09 00:52:04;;;;;;;43.90;36.03;;;;;;;18.30;100.00;101514.34;5062938;28;20443;-75
2023/09/09 00:54:29;;;;;;;44.58;38.72;;;;;;;18.37;100.00;101536.88;5062891;28;20036;-75
2023/09/09 00:57:00;;;;;;;43.10;37.88;;;;;;;18.39;100.00;101537.69;5060778;28;20021;-75
2023/09/09 00:59:26;;;;;;;44.40;39.30;;;;;;;18.39;100.00;101532.41;5065384;28;20032;-75
2023/09/09 01:01:51;;;;;;;46.05;41.03;;;;;;;18.35;100.00;101535.28;5059116;28;20033;-75
2023/09/09 01:04:16;;;;;;;47.17;40.30;;;;;;;18.22;100.00;101525.25;5066927;28;20024;-75
2023/09/09 01:06:44;;;;;;;44.92;39.92;;;;;;;18.23;100.00;101528.75;5059795;28;20075;-75
2023/09/09 01:09:10;;;;;;;48.88;41.25;;;;;;;18.20;100.00;101535.00;5066287;28;20055;-75
2023/09/09 01:11:35;;;;;;;46.70;40.33;;;;;;;18.14;100.00;101531.78;5059846;28;20057;-75
2023/09/09 01:14:02;;;;;;;49.75;43.75;;;;;;;18.16;100.00;101532.59;5065667;28;20035;-75
2023/09/09 01:16:28;;;;;;;50.75;43.08;;;;;;;18.21;100.00;101534.09;5062461;28;20499;-75
2023/09/09 01:18:54;;;;;;;46.45;40.38;;;;;;;18.24;100.00;101536.59;5060870;28;20056;-75
2023/09/09 01:21:21;;;;;;;47.90;42.70;;;;;;;18.25;100.00;101537.47;5060538;28;20060;-74
2023/09/09 01:23:47;;;;;;;52.80;45.63;;;;;;;18.17;100.00;101535.16;5062946;28;20028;-75
2023/09/09 01:26:12;;;;;;;54.15;46.00;;;;;;;18.17;100.00;101529.88;5056648;28;20037;-75
2023/09/09 01:28:38;;;;;;;53.33;47.50;;;;;;;18.16;100.00;101528.16;5065244;28;20036;-75
2023/09/09 01:31:03;;;;;;;52.60;46.78;;;;;;;18.09;100.00;101518.81;5060025;28;20032;-75
2023/09/09 01:33:29;;;;;;;52.47;46.88;;;;;;;18.11;100.00;101518.72;5066177;28;20025;-75
2023/09/09 01:35:54;;;;;;;55.75;48.25;;;;;;;18.08;100.00;101522.34;5058923;28;20017;-75
2023/09/09 01:38:19;;;;;;;60.47;49.17;;;;;;;18.10;100.00;101525.78;5064431;28;20032;-75
2023/09/09 01:40:45;;;;;;;54.08;47.28;;;;;;;18.05;100.00;101524.28;5061860;28;20028;-75
2023/09/09 01:43:10;;;;;;;59.88;50.10;;;;;;;18.03;100.00;101524.34;5061815;28;20474;-75
2023/09/09 01:45:35;;;;;;;56.60;50.17;;;;;;;18.05;100.00;101524.28;5062852;28;20041;-75
2023/09/09 01:48:01;;;;;;;55.13;47.85;;;;;;;18.00;100.00;101527.13;5061207;28;20120;-75
2023/09/09 01:50:26;;;;;;;56.65;49.50;;;;;;;18.00;100.00;101524.47;5062315;28;20076;-75
2023/09/09 01:52:51;;;;;;;55.00;48.83;;;;;;;18.02;100.00;101528.78;5061510;28;20074;-75
2023/09/09 01:55:17;;;;;;;58.55;50.65;;;;;;;17.99;100.00;101526.28;5067830;28;20107;-75
2023/09/09 01:57:42;;;;;;;59.38;51.08;;;;;;;17.90;100.00;101518.75;5062054;28;20160;-75
2023/09/09 02:00:08;;;;;;;54.97;48.95;;;;;;;17.94;100.00;101524.75;5065830;28;20486;-75
2023/09/09 02:02:34;;;;;;;58.65;51.20;;;;;;;17.87;100.00;101525.94;5066349;28;20017;-75
2023/09/09 02:05:00;;;;;;;57.80;50.70;;;;;;;17.86;100.00;101527.72;5065612;28;20040;-75
2023/09/09 02:07:27;;;;;;;59.55;52.08;;;;;;;17.85;100.00;101525.13;5052076;28;20361;-75
2023/09/09 02:09:52;;;;;;;56.42;50.20;;;;;;;17.82;100.00;101531.44;5067749;28;20106;-75
2023/09/09 02:12:17;;;;;;;58.45;52.05;;;;;;;17.79;100.00;101523.66;5064040;28;20460;-75
2023/09/09 02:14:43;;;;;;;60.53;51.35;;;;;;;17.78;100.00;101524.53;5069773;28;20498;-75
2023/09/09 02:17:08;;;;;;;59.70;52.80;;;;;;;17.75;100.00;101519.38;5062962;28;20075;-75
2023/09/09 02:19:33;;;;;;;61.13;54.38;;;;;;;17.67;100.00;101505.66;5070139;28;20039;-75
2023/09/09 02:21:59;;;;;;;62.03;55.28;;;;;;;17.73;100.00;101518.59;5062780;28;20032;-75
2023/09/09 02:24:24;;;;;;;66.45;58.65;;;;;;;17.61;100.00;101505.91;5070817;28;20067;-75
2023/09/09 02:26:50;;;;;;;67.78;58.58;;;;;;;17.63;100.00;101506.72;5063004;28;20033;-75
2023/09/09 02:29:15;;;;;;;62.72;55.10;;;;;;;17.68;100.00;101517.91;5058464;28;20035;-75
2023/09/09 02:31:40;;;;;;;67.55;58.40;;;;;;;17.65;100.00;101528.59;5068429;28;20065;-75
2023/09/09 02:34:06;;;;;;;64.72;56.17;;;;;;;17.63;100.00;101530.47;5062757;28;20040;-75
2023/09/09 02:36:31;;;;;;;62.70;55.92;;;;;;;17.60;100.00;101527.94;5069150;28;20016;-75
2023/09/09 02:38:56;;;;;;;67.05;56.50;;;;;;;17.62;100.00;101531.34;5061892;28;20045;-75
2023/09/09 02:41:22;;;;;;;69.95;58.40;;;;;;;17.60;100.00;101527.94;5067840;28;20491;-75
2023/09/09 02:43:47;;;;;;;70.15;61.75;;;;;;;17.63;100.00;101525.19;5064323;28;20034;-75
2023/09/09 02:46:13;;;;;;;70.32;61.78;;;;;;;17.63;100.00;101527.81;5056554;28;20032;-75
2023/09/09 02:48:38;;;;;;;75.07;61.58;;;;;;;17.62;100.00;101532.22;5065350;28;20105;-75
2023/09/09 02:51:04;;;;;;;69.70;61.70;;;;;;;17.61;100.00;101527.88;5064521;28;20131;-75
2023/09/09 02:53:30;;;;;;;73.95;61.53;;;;;;;17.46;100.00;101508.28;5065020;28;20109;-75
2023/09/09 02:55:55;;;;;;;70.03;60.65;;;;;;;17.53;100.00;101520.28;5064079;28;20031;-75
2023/09/09 02:58:21;;;;;;;70.05;60.13;;;;;;;17.51;100.00;101524.75;5065401;28;20028;-75
2023/09/09 03:00:48;;;;;;;74.65;62.53;;;;;;;17.49;100.00;101517.81;5064286;28;20040;-75
2023/09/09 03:03:15;;;;;;;80.18;65.88;;;;;;;17.50;100.00;101523.06;5064310;28;20029;-75
2023/09/09 03:05:41;;;;;;;76.45;65.40;;;;;;;17.51;100.00;101522.13;5065116;28;20020;-75
2023/09/09 03:08:06;;;;;;;86.28;71.38;;;;;;;17.49;100.00;101528.38;5063900;28;20086;-75
2023/09/09 03:10:32;;;;;;;84.85;67.90;;;;;;;17.44;100.00;101525.09;5065314;28;20033;-75
2023/09/09 03:12:58;;;;;;;78.38;67.35;;;;;;;17.41;100.00;101528.69;5066104;28;20021;-74
2023/09/09 03:15:23;;;;;;;84.60;69.43;;;;;;;17.38;100.00;101526.19;5063393;28;20035;-75
2023/09/09 03:17:49;;;;;;;82.63;68.00;;;;;;;17.34;100.00;101524.59;5067868;28;20075;-75
2023/09/09 03:20:15;;;;;;;85.93;70.70;;;;;;;17.31;100.00;101512.41;5061810;28;20065;-75
2023/09/09 03:22:40;;;;;;;84.40;69.68;;;;;;;17.31;100.00;101516.81;5052775;28;20086;-75
2023/09/09 03:25:07;;;;;;;84.35;70.25;;;;;;;17.24;100.00;101525.91;5062010;28;20099;-75
2023/09/09 03:27:33;;;;;;;82.15;67.63;;;;;;;17.26;100.00;101527.53;5061193;28;20075;-75
2023/09/09 03:29:58;;;;;;;78.50;65.90;;;;;;;17.24;100.00;101526.75;5064314;28;20426;-75
2023/09/09 03:32:25;;;;;;;78.68;65.88;;;;;;;17.26;100.00;101530.16;5063680;28;20024;-75
2023/09/09 03:34:52;;;;;;;82.82;67.65;;;;;;;17.26;100.00;101524.91;5063562;28;20028;-75
2023/09/09 03:37:18;;;;;;;86.82;71.55;;;;;;;17.26;100.00;101532.78;5065483;28;20090;-75
2023/09/09 03:39:44;;;;;;;84.82;71.90;;;;;;;17.26;100.00;101530.16;5062096;28;20465;-75
2023/09/09 03:42:09;;;;;;;84.30;70.07;;;;;;;17.18;100.00;101527.00;5066449;28;20063;-75
2023/09/09 03:44:34;;;;;;;84.13;71.60;;;;;;;17.16;100.00;101533.25;5061389;28;20025;-75
2023/09/09 03:47:00;;;;;;;93.25;75.30;;;;;;;17.12;100.00;101532.50;5068229;28;20024;-75
2023/09/09 03:49:25;;;;;;;89.00;72.85;;;;;;;17.14;100.00;101527.19;5060441;28;20041;-75
2023/09/09 03:51:51;;;;;;;89.72;72.35;;;;;;;17.09;100.00;101530.00;5068040;28;20036;-75
2023/09/09 03:54:17;;;;;;;90.57;73.25;;;;;;;17.09;100.00;101538.75;5061340;28;20033;-75
2023/09/09 03:56:42;;;;;;;92.10;72.88;;;;;;;17.07;100.00;101539.75;5065903;28;20391;-75
2023/09/09 03:59:07;;;;;;;90.10;73.75;;;;;;;16.98;100.00;101535.69;5062583;28;20051;-75
2023/09/09 04:01:32;;;;;;;91.00;72.88;;;;;;;16.96;100.00;101542.78;5064665;28;20035;-75
2023/09/09 04:03:58;;;;;;;93.35;73.35;;;;;;;16.94;100.00;101535.84;5063842;28;20024;-75
2023/09/09 04:06:23;;;;;;;96.05;75.32;;;;;;;16.93;100.00;101539.41;5063602;28;20105;-75
2023/09/09 04:08:55;;;;;;;94.38;73.03;;;;;;;16.90;100.00;101540.38;5064229;28;20030;-75
2023/09/09 04:11:20;;;;;;;92.95;74.60;;;;;;;16.84;100.00;101533.59;5062989;28;20383;-75
2023/09/09 04:13:46;;;;;;;93.97;74.13;;;;;;;16.83;100.00;101545.03;5063837;28;20021;-75
2023/09/09 04:16:11;;;;;;;95.13;76.72;;;;;;;16.81;100.00;101538.97;5063755;28;20032;-75
2023/09/09 04:18:36;;;;;;;96.47;77.72;;;;;;;16.79;100.00;101545.22;5062570;28;20036;-75
2023/09/09 04:21:02;;;;;;;97.20;76.70;;;;;;;16.72;100.00;101534.03;5063763;28;20027;-75
2023/09/09 04:23:27;;;;;;;98.18;74.75;;;;;;;16.69;100.00;101539.41;5063595;28;20027;-75
2023/09/09 04:25:52;;;;;;;92.32;74.40;;;;;;;16.63;100.00;101529.97;5063109;28;20391;-75
2023/09/09 04:28:18;;;;;;;96.05;76.28;;;;;;;16.64;100.00;101538.72;5064154;28;20044;-75
2023/09/09 04:30:45;;;;;;;98.35;76.03;;;;;;;16.62;100.00;101535.28;5061856;28;20036;-75
2023/09/09 04:33:11;;;;;;;89.75;73.22;;;;;;;16.60;100.00;101531.84;5063191;28;20032;-75
2023/09/09 04:35:41;;;;;;;98.10;76.72;;;;;;;16.58;100.00;101545.09;5061685;28;20361;-74
2023/09/09 04:38:07;;;;;;;95.03;74.35;;;;;;;16.53;100.00;101549.66;5063478;28;20024;-75
2023/09/09 04:40:40;;;;;;;96.07;76.38;;;;;;;16.48;100.00;101551.63;5062577;28;20032;-75
2023/09/09 04:43:06;;;;;;;97.45;75.78;;;;;;;16.39;100.00;101544.91;5052632;28;20107;-75
2023/09/09 04:45:31;;;;;;;95.05;75.32;;;;;;;16.39;100.00;101557.22;5064711;28;20178;-75
2023/09/09 04:47:56;;;;;;;104.63;78.63;;;;;;;16.36;100.00;101544.16;5061522;28;20045;-75
2023/09/09 04:50:22;;;;;;;96.47;74.90;;;;;;;16.31;100.00;101549.56;5063987;28;20036;-75
2023/09/09 04:52:47;;;;;;;97.55;75.63;;;;;;;16.27;100.00;101555.88;5061857;28;20021;-75
2023/09/09 04:55:13;;;;;;;97.07;77.20;;;;;;;16.26;100.00;101553.31;5063351;28;20031;-75
2023/09/09 04:57:40;;;;;;;94.43;72.88;;;;;;;16.23;100.00;101548.16;5064120;28;20051;-75
2023/09/09 05:00:07;;;;;;;97.60;73.72;;;;;;;16.22;100.00;101554.28;5060910;28;20392;-75
2023/09/09 05:02:37;;;;;;;103.32;75.60;;;;;;;16.23;100.00;101551.63;5066338;28;20025;-75
2023/09/09 05:05:04;;;;;;;93.38;74.93;;;;;;;16.25;100.00;101555.06;5058212;28;20502;-75
2023/09/09 05:07:34;;;;;;;99.20;77.65;;;;;;;16.25;100.00;101546.31;5066631;28;20021;-75
2023/09/09 05:10:00;;;;;;;101.50;78.85;;;;;;;16.25;100.00;101554.19;5062644;28;20032;-75
2023/09/09 05:12:25;;;;;;;106.88;82.68;;;;;;;16.15;100.00;101541.41;5068084;28;20021;-75
2023/09/09 05:14:50;;;;;;;112.55;82.93;;;;;;;16.23;100.00;101554.25;5059086;28;20029;-75
2023/09/09 05:17:16;;;;;;;107.35;81.15;;;;;;;16.27;100.00;101553.22;5068450;28;20391;-75
2023/09/09 05:19:41;;;;;;;111.97;83.25;;;;;;;16.26;100.00;101553.31;5059760;28;20486;-75
2023/09/09 05:22:07;;;;;;;146.02;94.32;;;;;;;16.37;100.00;101557.25;5066680;28;20035;-75
2023/09/09 05:24:32;;;;;;;118.82;88.65;;;;;;;16.41;100.00;101560.63;5061293;28;20017;-75
2023/09/09 05:26:57;;;;;;;142.20;97.32;;;;;;;16.48;100.00;101556.88;5059885;28;20103;-75
2023/09/09 05:29:23;;;;;;;136.40;97.25;;;;;;;16.52;100.00;101560.25;5059648;28;20036;-75
2023/09/09 05:31:48;;;;;;;149.13;99.95;;;;;;;16.59;100.00;101565.22;5066452;28;20123;-75
2023/09/09 05:34:13;;;;;;;152.48;100.05;;;;;;;16.62;100.00;101566.88;5062299;28;20116;-75
2023/09/09 05:36:39;;;;;;;134.63;98.30;;;;;;;16.71;100.00;101574.44;5069842;28;20116;-75
2023/09/09 05:39:04;;;;;;;132.88;97.85;;;;;;;16.77;100.00;101568.09;5063767;28;20116;-75
2023/09/09 05:41:30;;;;;;;132.27;96.85;;;;;;;16.76;100.00;101569.88;5069191;28;20025;-75
2023/09/09 05:43:55;;;;;;;137.20;96.97;;;;;;;16.84;100.00;101569.63;5064162;28;20021;-75
2023/09/09 05:46:21;;;;;;;138.48;97.03;;;;;;;16.87;100.00;101568.63;5068192;28;20029;-75
2023/09/09 05:48:50;;;;;;;222.40;104.93;;;;;;;16.87;100.00;101561.56;5065738;28;20052;-75
2023/09/09 05:51:15;;;;;;;275.50;110.07;;;;;;;16.95;100.00;101571.81;5067540;28;20502;-75
2023/09/09 05:53:41;;;;;;;235.40;106.30;;;;;;;16.88;100.00;101565.94;5066456;28;20037;-75
2023/09/09 05:56:06;;;;;;;404.95;110.75;;;;;;;16.93;100.00;101566.59;5065081;28;20074;-75
2023/09/09 05:58:33;;;;;;;397.95;109.50;;;;;;;16.99;100.00;101584.81;5066487;28;20112;-75
2023/09/09 06:00:59;;;;;;;325.38;105.00;;;;;;;16.95;100.00;101563.94;5065694;28;20029;-75
2023/09/09 06:03:24;;;;;;;403.00;109.72;;;;;;;17.04;100.00;101577.59;5065943;28;20024;-75
2023/09/09 06:05:49;;;;;;;371.58;106.90;;;;;;;17.05;100.00;101587.22;5066305;28;20017;-75
2023/09/09 06:08:14;;;;;;;204.63;99.50;;;;;;;17.10;100.00;101576.47;5066161;28;20526;-75
2023/09/09 06:10:40;;;;;;;450.88;104.20;;;;;;;17.13;100.00;101589.53;5065547;28;20434;-75
2023/09/09 06:13:05;;;;;;;344.70;96.85;;;;;;;17.04;100.00;101589.91;5066558;28;20530;-75
2023/09/09 06:15:30;;;;;;;175.43;96.82;;;;;;;16.99;100.00;101590.06;5066305;28;20024;-75
2023/09/09 06:17:57;;;;;;;332.45;100.05;;;;;;;16.97;100.00;101589.28;5067842;28;20519;-75
2023/09/09 06:20:23;;;;;;;133.13;95.13;;;;;;;17.06;100.00;101594.19;5064039;28;20503;-75
2023/09/09 06:22:48;;;;;;;207.00;96.68;;;;;;;17.08;100.00;101595.00;5070116;28;20021;-75
2023/09/09 06:25:14;;;;;;;116.85;93.68;;;;;;;17.17;100.00;101598.22;5062009;28;20033;-75
2023/09/09 06:27:39;;;;;;;146.32;93.25;;;;;;;17.24;100.00;101604.94;5065165;28;20057;-75
2023/09/09 06:30:05;;;;;;;130.75;94.20;;;;;;;17.26;100.00;101603.09;5066012;28;20050;-75
2023/09/09 06:32:31;;;;;;;111.65;93.38;;;;;;;17.37;100.00;101611.44;5063526;28;20025;-75
2023/09/09 06:34:56;;;;;;;114.50;93.25;;;;;;;17.40;100.00;101611.34;5066170;28;20067;-75
2023/09/09 06:37:21;;;;;;;126.93;93.68;;;;;;;17.39;100.00;101612.22;5066342;28;20180;-75
2023/09/09 06:39:46;;;;;;;129.45;93.25;;;;;;;17.42;100.00;101617.38;5063723;28;20045;-75
2023/09/09 06:42:13;;;;;;;122.63;92.15;;;;;;;17.45;100.00;101616.41;5068099;28;20024;-75
2023/09/09 06:44:38;;;;;;;109.70;92.05;;;;;;;17.45;100.00;101604.09;5061694;28;20429;-75
2023/09/09 06:47:04;;;;;;;111.65;92.05;;;;;;;17.49;100.00;101620.63;5069939;28;20117;-75
2023/09/09 06:49:29;;;;;;;110.72;93.93;;;;;;;17.45;100.00;101617.25;5062132;28;20043;-75
2023/09/09 06:51:54;;;;;;;112.78;94.32;;;;;;;17.44;100.00;101618.19;5069436;28;20028;-75
2023/09/09 06:54:20;;;;;;;116.57;95.50;;;;;;;17.44;100.00;101617.34;5062228;28;20116;-75
2023/09/09 06:56:46;;;;;;;116.05;95.80;;;;;;;17.44;100.00;101618.19;5069300;28;20025;-75
2023/09/09 06:59:12;;;;;;;120.63;98.25;;;;;;;17.45;100.00;101621.69;5062104;28;20060;-75
2023/09/09 07:01:37;;;;;;;121.25;97.05;;;;;;;17.44;100.00;101630.53;5067779;28;20416;-75
2023/09/09 07:04:03;;;;;;;122.38;100.90;;;;;;;17.45;100.00;101626.94;5064879;28;20376;-75
2023/09/09 07:06:28;;;;;;;134.95;105.55;;;;;;;17.38;100.00;101614.94;5064893;28;20146;-75
2023/09/09 07:08:53;;;;;;;131.25;105.45;;;;;;;17.50;100.00;101633.78;5065386;28;20483;-75
2023/09/09 07:11:19;;;;;;;128.88;103.82;;;;;;;17.57;100.00;101625.63;5065282;28;20032;-75
2023/09/09 07:13:44;;;;;;;135.95;104.13;;;;;;;17.57;100.00;101620.34;5064111;28;20488;-75
2023/09/09 07:16:09;;;;;;;136.02;107.25;;;;;;;17.69;100.00;101635.66;5065023;28;20486;-75
2023/09/09 07:18:34;;;;;;;133.30;105.15;;;;;;;17.76;100.00;101630.13;5064926;28;20044;-75
2023/09/09 07:21:00;;;;;;;130.18;105.10;;;;;;;17.85;100.00;101626.22;5064451;28;20017;-75
2023/09/09 07:23:25;;;;;;;134.90;106.32;;;;;;;17.95;100.00;101632.84;5062220;28;20477;-75
2023/09/09 07:25:51;;;;;;;135.77;106.25;;;;;;;18.05;100.00;101638.59;5065101;28;20028;-75
2023/09/09 07:28:16;;;;;;;135.30;107.43;;;;;;;18.11;100.00;101630.41;5064294;28;20089;-75
2023/09/09 07:30:41;;;;;;;134.88;106.75;;;;;;;18.21;100.00;101636.16;5063458;28;20024;-75
2023/09/09 07:33:07;;;;;;;135.15;104.70;;;;;;;18.30;100.00;101646.31;5064869;28;20039;-75
2023/09/09 07:35:35;;;;;;;138.70;108.55;;;;;;;18.32;100.00;101625.16;5062493;28;20041;-75
2023/09/09 07:38:03;;;;;;;129.93;103.82;;;;;;;18.46;100.00;101636.81;5064630;28;20021;-75
2023/09/09 07:40:29;;;;;;;145.20;111.25;;;;;;;18.59;100.00;101647.69;5064346;28;20036;-75
2023/09/09 07:42:54;;;;;;;149.75;112.57;;;;;;;18.64;100.00;101645.72;5063012;28;20381;-75
2023/09/09 07:45:19;;;;;;;143.40;111.00;;;;;;;18.71;100.00;101641.03;5064861;28;20036;-75
2023/09/09 07:47:45;;;;;;;146.93;114.28;;;;;;;18.74;100.00;101634.75;5063435;28;20106;-75
2023/09/09 07:50:10;;;;;;;149.82;114.03;;;;;;;18.87;100.00;101644.72;5063895;28;20383;-75
2023/09/09 07:52:36;;;;;;;137.95;110.03;;;;;;;18.95;100.00;101642.56;5065001;28;20021;-75
2023/09/09 07:55:01;;;;;;;136.93;106.45;;;;;;;19.04;100.00;101648.38;5062210;28;20413;-75
2023/09/09 07:57:26;;;;;;;133.85;103.43;;;;;;;19.11;100.00;101652.44;5066571;28;20044;-75
2023/09/09 07:59:52;;;;;;;128.23;102.20;;;;;;;19.22;100.00;101644.84;5058143;28;20205;-75
2023/09/09 08:02:17;;;;;;;118.82;97.55;;;;;;;19.33;100.00;101645.22;5052588;28;20749;-75
2023/09/09 08:04:42;;;;;;;112.70;94.32;;;;;;;19.42;100.00;101650.06;5060492;28;20025;-75
2023/09/09 08:07:08;;;;;;;112.47;92.93;;;;;;;19.52;100.00;101650.50;5069328;28;20032;-75
2023/09/09 08:09:33;;;;;;;107.65;90.28;;;;;;;19.64;100.00;101647.25;5059736;28;20384;-75
2023/09/09 08:11:59;;;;;;;113.90;92.97;;;;;;;19.76;100.00;101650.25;5068527;28;20062;-74
2023/09/09 08:14:24;;;;;;;111.68;91.78;;;;;;;19.85;100.00;101655.97;5061960;28;20054;-75
2023/09/09 08:16:50;;;;;;;95.78;81.40;;;;;;;19.91;100.00;101653.94;5059705;28;20443;-75
2023/09/09 08:19:16;;;;;;;99.10;84.70;;;;;;;20.07;100.00;101647.78;5066808;28;20032;-75
2023/09/09 08:21:41;;;;;;;101.82;87.30;;;;;;;20.15;100.00;101655.34;5060463;28;20071;-75
2023/09/09 08:24:06;;;;;;;86.88;74.10;;;;;;;20.21;100.00;101655.03;5064571;28;20115;-75
2023/09/09 08:26:32;;;;;;;87.03;71.82;;;;;;;20.29;100.00;101660.78;5061668;28;20029;-75
2023/09/09 08:28:57;;;;;;;85.47;74.28;;;;;;;20.32;100.00;101663.28;5060836;28;20036;-75
2023/09/09 08:31:22;;;;;;;78.03;67.25;;;;;;;20.44;100.00;101663.59;5067372;28;20112;-75
2023/09/09 08:33:48;;;;;;;73.53;62.55;;;;;;;20.53;100.00;101665.78;5060501;28;20476;-75
2023/09/09 08:36:15;;;;;;;69.72;61.50;;;;;;;20.63;100.00;101666.16;5066320;28;20392;-75
2023/09/09 08:38:40;;;;;;;66.93;59.10;;;;;;;20.63;100.00;101655.56;5061231;28;20032;-74
2023/09/09 08:41:11;;;;;;;67.32;59.00;;;;;;;20.76;100.00;101659.28;5064167;28;20055;-75
2023/09/09 08:44:13;;;;;;;63.00;52.25;;;;;;;20.92;100.00;101669.91;5063396;28;20024;-74
2023/09/09 08:46:38;;;;;;;61.17;54.38;;;;;;;20.99;100.00;101673.94;5065208;28;20051;-75
2023/09/09 08:49:05;;;;;;;61.25;53.72;;;;;;;21.08;100.00;101667.28;5060327;28;20492;-75
2023/09/09 08:52:06;;;;;;;58.78;51.08;;;;;;;21.22;100.00;101675.34;5065583;28;20029;-75
2023/09/09 08:54:32;;;;;;;57.90;49.35;;;;;;;21.28;100.00;101675.84;5055808;28;20068;-75
2023/09/09 08:56:59;;;;;;;62.67;54.33;;;;;;;21.44;100.00;101667.09;5060702;28;20076;-75
2023/09/09 08:59:25;;;;;;;59.78;52.65;;;;;;;21.56;100.00;101674.38;5059664;28;20098;-74
2023/09/09 09:01:51;;;;;;;62.42;51.17;;;;;;;21.67;100.00;101665.78;5067790;28;20077;-75
2023/09/09 09:04:18;;;;;;;52.83;44.90;;;;;;;21.90;100.00;101675.09;5060485;28;20096;-75
2023/09/09 09:06:47;;;;;;;45.30;40.40;;;;;;;22.02;100.00;101681.50;5059190;28;20033;-75
2023/09/09 09:09:15;;;;;;;47.70;38.83;;;;;;;22.02;100.00;101682.34;5069953;28;20392;-75
2023/09/09 09:11:40;;;;;;;45.22;37.80;;;;;;;22.15;100.00;101683.38;5069206;28;20025;-75
2023/09/09 09:14:09;;;;;;;40.15;35.75;;;;;;;22.27;100.00;101676.47;5066644;28;20024;-75
2023/09/09 09:16:42;;;;;;;36.53;32.10;;;;;;;22.40;100.00;101679.25;5064110;28;20071;-75
2023/09/09 09:19:17;;;;;;;32.92;29.48;;;;;;;22.54;100.00;101681.94;5069911;28;20123;-75
2023/09/09 09:21:43;;;;;;;31.40;27.02;;;;;;;22.62;100.00;101682.31;5061049;28;20071;-75
2023/09/09 09:24:08;;;;;;;30.65;25.48;;;;;;;22.82;100.00;101681.09;5069142;28;20488;-75
2023/09/09 09:26:33;;;;;;;26.83;23.08;;;;;;;22.87;100.00;101681.66;5063619;28;20115;-75
2023/09/09 09:29:06;;;;;;;24.20;21.05;;;;;;;22.94;100.00;101681.31;5064045;28;20384;-75
2023/09/09 09:31:32;;;;;;;20.38;17.95;;;;;;;23.02;100.00;101673.72;5071428;28;20056;-75
2023/09/09 09:33:59;;;;;;;27.02;24.08;;;;;;;23.14;100.00;101670.28;5063190;28;20037;-75
2023/09/09 09:36:25;;;;;;;29.35;25.70;;;;;;;23.24;100.00;101673.22;5070979;28;20419;-75
2023/09/09 09:38:52;;;;;;;28.83;24.48;;;;;;;23.38;100.00;101665.22;5063699;28;20032;-74
2023/09/09 09:41:19;;;;;;;23.80;20.90;;;;;;;23.51;100.00;101666.13;5069093;28;20373;-75
2023/09/09 09:43:46;;;;;;;21.00;17.90;;;;;;;23.55;100.00;101670.31;5065190;28;20070;-75
2023/09/09 09:46:19;;;;;;;16.50;13.55;;;;;;;23.65;100.00;101683.88;5068223;28;20383;-75
2023/09/09 09:48:45;;;;;;;16.10;14.43;;;;;;;23.72;100.00;101674.56;5064794;28;20496;-75
2023/09/09 09:51:11;;;;;;;12.85;11.52;;;;;;;23.88;100.00;101669.06;5067303;28;20059;-75
2023/09/09 09:53:49;;;;;;;10.82;9.70;;;;;;;23.93;100.00;101671.41;5066648;28;20134;-75
2023/09/09 09:56:15;;;;;;;9.52;8.27;;;;;;;23.93;100.00;101676.75;5057206;28;20112;-75
2023/09/09 09:58:43;;;;;;;12.35;11.18;;;;;;;24.03;100.00;101673.38;5066365;28;20033;-75
2023/09/09 10:01:10;;;;;;;14.65;9.77;;;;;;;24.10;100.00;101667.63;5066136;28;20380;-75
2023/09/09 10:04:01;;;;;;;9.05;7.53;;;;;;;24.27;100.00;101672.69;5065365;28;20486;-75
2023/09/09 10:06:28;;;;;;;11.20;9.95;;;;;;;24.32;96.12;101664.34;5061419;28;20057;-75
2023/09/09 10:09:23;;;;;;;9.60;8.57;;;;;;;24.40;100.00;101668.22;5067375;28;20032;-75
2023/09/09 10:11:57;;;;;;;8.55;7.20;;;;;;;24.52;97.75;101674.53;5057980;28;20502;-75
2023/09/09 10:14:25;;;;;;;10.93;9.82;;;;;;;24.66;90.37;101666.44;5069084;28;20444;-75
2023/09/09 10:16:54;;;;;;;11.85;8.48;;;;;;;24.75;87.87;101665.78;5061741;28;20021;-75
2023/09/09 10:19:20;;;;;;;10.45;8.73;;;;;;;24.80;87.15;101669.94;5068277;28;20032;-75
2023/09/09 10:21:48;;;;;;;8.80;7.90;;;;;;;24.93;89.24;101668.13;5062827;28;20063;-75
2023/09/09 10:24:15;;;;;;;8.30;7.53;;;;;;;25.00;82.36;101664.03;5068474;28;20036;-75
2023/09/09 10:26:41;;;;;;;12.13;10.93;;;;;;;25.03;85.48;101668.31;5059289;28;20055;-75
2023/09/09 10:29:08;;;;;;;10.88;9.88;;;;;;;25.11;89.67;101658.78;5063043;28;20429;-75
2023/09/09 10:31:35;;;;;;;9.82;8.88;;;;;;;25.19;91.73;101663.63;5069628;28;20538;-75
2023/09/09 10:34:02;;;;;;;11.15;9.20;;;;;;;25.41;85.44;101669.09;5062734;28;20039;-75
2023/09/09 10:36:29;;;;;;;8.82;7.72;;;;;;;25.33;88.14;101660.78;5070589;28;20062;-75
2023/09/09 10:38:56;;;;;;;10.68;7.10;;;;;;;25.42;83.77;101659.28;5062055;28;20033;-75
2023/09/09 10:41:21;;;;;;;8.85;7.53;;;;;;;25.57;88.54;101663.50;5062228;28;20468;-75
2023/09/09 10:43:47;;;;;;;7.88;7.18;;;;;;;25.60;87.64;101663.25;5066668;28;20047;-75
2023/09/09 10:46:13;;;;;;;8.07;7.28;;;;;;;25.63;81.45;101663.00;5067138;28;20036;-75
2023/09/09 10:48:39;;;;;;;10.93;9.82;;;;;;;25.76;77.37;101670.13;5065182;28;20036;-75
2023/09/09 10:51:07;;;;;;;8.60;7.70;;;;;;;25.83;85.70;101663.38;5064765;28;20775;-75
2023/09/09 10:53:33;;;;;;;8.10;7.30;;;;;;;25.88;85.05;101662.06;5064238;28;20063;-75
2023/09/09 10:56:18;;;;;;;10.68;9.63;;;;;;;26.07;93.70;101655.34;5059024;28;20418;-75